Time;durP1;ratioP1;P1;durP2;ratioP2;P2;SDS_P1;SDS_P2;PMS_P1;PMS_P2;Temp;Humidity;BMP_temperature;BMP_pressure;BME280_temperature;BME280_humidity;BME280_pressure;Samples;Min_cycle;Max_cycle;Signal;HPM_P1;HPM_P2
2021/03/07 00:00:11;;;;;;;10.32;6.22;;;;;;;;;;5034088;28;20021;-49
2021/03/07 00:02:37;;;;;;;12.70;7.00;;;;;;;;;;5034071;28;20029;-49
2021/03/07 00:05:03;;;;;;;11.95;6.35;;;;;;;;;;5033812;28;20033;-49
2021/03/07 00:07:30;;;;;;;10.32;6.40;;;;;;;;;;5033728;28;20123;-45
2021/03/07 00:09:56;;;;;;;15.02;6.80;;;;;;;;;;5033944;28;20156;-48
2021/03/07 00:12:22;;;;;;;11.77;7.05;;;;;;;;;;5033699;28;20057;-48
2021/03/07 00:14:49;;;;;;;11.40;6.03;;;;;;;;;;5033855;28;20030;-47
2021/03/07 00:17:15;;;;;;;12.55;7.03;;;;;;;;;;5033723;28;20025;-50
2021/03/07 00:19:41;;;;;;;13.52;7.60;;;;;;;;;;5033757;28;20022;-52
2021/03/07 00:22:07;;;;;;;15.23;6.75;;;;;;;;;;5033854;28;20021;-51
2021/03/07 00:24:33;;;;;;;11.85;6.63;;;;;;;;;;5033659;28;20087;-49
2021/03/07 00:26:59;;;;;;;12.07;6.65;;;;;;;;;;5033747;28;20056;-51
2021/03/07 00:29:27;;;;;;;12.40;6.70;;;;;;;;;;5033747;28;20113;-54
2021/03/07 00:31:53;;;;;;;11.95;6.32;;;;;;;;;;5033786;28;20381;-52
2021/03/07 00:34:19;;;;;;;11.98;7.07;;;;;;;;;;5033477;28;20100;-53
2021/03/07 00:36:45;;;;;;;10.20;5.95;;;;;;;;;;5033451;28;20021;-53
2021/03/07 00:39:11;;;;;;;11.55;6.50;;;;;;;;;;5033501;28;20026;-52
2021/03/07 00:41:37;;;;;;;11.57;6.10;;;;;;;;;;5033209;28;20029;-50
2021/03/07 00:44:07;;;;;;;10.95;6.07;;;;;;;;;;5033199;28;20522;-51
2021/03/07 00:46:34;;;;;;;10.98;6.32;;;;;;;;;;5033094;28;20052;-49
2021/03/07 00:49:00;;;;;;;10.85;5.88;;;;;;;;;;5033308;28;20026;-51
2021/03/07 00:51:26;;;;;;;11.45;6.47;;;;;;;;;;5033328;28;20022;-48
2021/03/07 00:53:52;;;;;;;11.80;6.00;;;;;;;;;;5032992;28;20508;-48
2021/03/07 00:56:18;;;;;;;13.60;6.38;;;;;;;;;;5032869;28;20029;-46
2021/03/07 00:58:44;;;;;;;10.85;6.30;;;;;;;;;;5032974;28;20040;-49
2021/03/07 01:01:10;;;;;;;10.90;6.47;;;;;;;;;;5033222;28;20026;-48
2021/03/07 01:03:36;;;;;;;11.10;6.03;;;;;;;;;;5033106;28;20026;-47
2021/03/07 01:06:02;;;;;;;10.30;5.57;;;;;;;;;;5032680;28;20026;-47
2021/03/07 01:11:04;;;;;;;10.38;6.10;;;;;;;;;;4629586;23;20261;-52
2021/03/07 01:13:31;;;;;;;10.45;6.03;;;;;;;;;;5013152;28;20025;-49
2021/03/07 01:15:57;;;;;;;11.70;6.20;;;;;;;;;;5013084;28;20018;-46
2021/03/07 01:18:23;;;;;;;11.02;6.15;;;;;;;;;;5012444;28;20034;-52
2021/03/07 01:20:49;;;;;;;10.88;6.40;;;;;;;;;;5013326;28;20460;-48
2021/03/07 01:23:16;;;;;;;12.00;6.65;;;;;;;;;;5012820;28;20097;-46
2021/03/07 01:25:43;;;;;;;12.60;6.82;;;;;;;;;;5012611;28;20030;-45
2021/03/07 01:28:09;;;;;;;10.63;6.15;;;;;;;;;;5012844;28;20381;-46
2021/03/07 01:30:36;;;;;;;11.45;6.18;;;;;;;;;;5012866;28;20026;-50
2021/03/07 01:33:03;;;;;;;13.00;7.10;;;;;;;;;;5012612;28;20125;-49
2021/03/07 01:35:30;;;;;;;10.88;5.75;;;;;;;;;;5012684;28;20025;-48
2021/03/07 01:37:56;;;;;;;12.25;6.53;;;;;;;;;;5012568;28;20029;-48
2021/03/07 01:40:26;;;;;;;12.77;6.47;;;;;;;;;;5012348;28;20079;-48
2021/03/07 01:42:53;;;;;;;10.65;5.78;;;;;;;;;;5012454;28;20423;-50
2021/03/07 01:45:20;;;;;;;11.40;6.72;;;;;;;;;;5012484;28;20103;-49
2021/03/07 01:47:47;;;;;;;10.80;6.40;;;;;;;;;;5012554;28;20047;-48
2021/03/07 01:50:15;;;;;;;10.73;6.35;;;;;;;;;;5012239;28;20046;-52
2021/03/07 01:52:41;;;;;;;9.82;5.85;;;;;;;;;;5012276;28;20033;-46
2021/03/07 01:55:07;;;;;;;11.00;6.20;;;;;;;;;;5011977;28;20116;-49
2021/03/07 01:57:34;;;;;;;11.07;6.15;;;;;;;;;;5012201;28;20045;-47
2021/03/07 02:00:01;;;;;;;9.57;5.60;;;;;;;;;;5012390;28;20456;-49
2021/03/07 02:02:28;;;;;;;10.85;6.03;;;;;;;;;;5012065;28;20030;-47
2021/03/07 02:04:54;;;;;;;10.48;6.10;;;;;;;;;;5012181;28;20026;-48
2021/03/07 02:07:20;;;;;;;10.65;5.88;;;;;;;;;;5011933;28;20030;-48
2021/03/07 02:09:49;;;;;;;12.20;6.00;;;;;;;;;;5011665;28;20493;-51
2021/03/07 02:12:15;;;;;;;11.30;6.30;;;;;;;;;;5012030;28;20032;-49
2021/03/07 02:14:42;;;;;;;10.55;6.03;;;;;;;;;;5012038;28;20117;-47
2021/03/07 02:17:08;;;;;;;10.52;6.07;;;;;;;;;;5011901;28;20026;-47
2021/03/07 02:19:36;;;;;;;10.10;5.70;;;;;;;;;;5012071;28;20034;-49
2021/03/07 02:22:04;;;;;;;10.38;5.97;;;;;;;;;;4994470;28;20366;-50
2021/03/07 02:24:32;;;;;;;10.95;5.95;;;;;;;;;;5011831;28;20038;-51
2021/03/07 02:26:59;;;;;;;12.45;6.50;;;;;;;;;;5011713;28;20503;-50
2021/03/07 02:29:26;;;;;;;12.77;6.45;;;;;;;;;;5012066;28;20026;-49
2021/03/07 02:31:56;;;;;;;10.98;6.60;;;;;;;;;;5011720;28;20380;-50
2021/03/07 02:34:22;;;;;;;14.45;6.55;;;;;;;;;;5011623;28;20030;-51
2021/03/07 02:36:54;;;;;;;12.70;6.50;;;;;;;;;;5011732;28;20036;-49
2021/03/07 02:39:24;;;;;;;12.07;6.80;;;;;;;;;;5011630;28;20026;-50
2021/03/07 02:41:50;;;;;;;11.52;6.60;;;;;;;;;;5011527;28;20030;-47
2021/03/07 02:44:18;;;;;;;10.63;6.55;;;;;;;;;;5011776;28;20420;-52
2021/03/07 02:46:45;;;;;;;12.18;7.15;;;;;;;;;;5011577;28;20485;-50
2021/03/07 02:49:14;;;;;;;11.40;6.35;;;;;;;;;;5011926;28;20030;-49
2021/03/07 02:51:41;;;;;;;14.05;8.45;;;;;;;;;;5011520;28;20097;-49
2021/03/07 02:54:08;;;;;;;11.35;6.20;;;;;;;;;;5011663;28;20477;-50
2021/03/07 02:56:35;;;;;;;12.35;7.00;;;;;;;;;;5011553;28;20034;-51
2021/03/07 02:59:05;;;;;;;13.35;6.60;;;;;;;;;;4993842;28;20409;-48
2021/03/07 03:01:31;;;;;;;11.27;6.65;;;;;;;;;;5011742;28;20088;-54
2021/03/07 03:03:57;;;;;;;9.63;5.85;;;;;;;;;;5011527;28;20561;-53
2021/03/07 03:06:24;;;;;;;12.30;5.82;;;;;;;;;;5011423;28;20096;-47
2021/03/07 03:08:52;;;;;;;15.35;6.50;;;;;;;;;;5011459;28;20033;-49
2021/03/07 03:11:19;;;;;;;12.20;5.78;;;;;;;;;;5011076;28;20397;-46
2021/03/07 03:13:48;;;;;;;10.10;5.95;;;;;;;;;;5011393;28;20037;-51
2021/03/07 03:16:15;;;;;;;10.38;6.15;;;;;;;;;;5011313;28;20026;-49
2021/03/07 03:18:42;;;;;;;15.02;6.57;;;;;;;;;;4993674;28;20018;-48
2021/03/07 03:21:10;;;;;;;11.73;6.13;;;;;;;;;;5011752;28;20376;-50
2021/03/07 03:23:36;;;;;;;11.32;6.43;;;;;;;;;;5011421;28;20030;-47
2021/03/07 03:26:03;;;;;;;10.35;6.57;;;;;;;;;;5011009;28;20026;-47
2021/03/07 03:28:29;;;;;;;10.27;5.97;;;;;;;;;;5011200;28;20030;-47
2021/03/07 03:30:55;;;;;;;11.25;6.32;;;;;;;;;;5011175;28;20026;-48
2021/03/07 03:33:22;;;;;;;9.63;5.65;;;;;;;;;;5011092;28;20548;-53
2021/03/07 03:35:48;;;;;;;11.82;6.50;;;;;;;;;;5011414;28;20034;-48
2021/03/07 03:38:14;;;;;;;10.50;6.47;;;;;;;;;;5011082;28;20018;-52
2021/03/07 03:40:41;;;;;;;14.07;6.60;;;;;;;;;;5011711;28;20029;-53
2021/03/07 03:43:09;;;;;;;10.27;5.50;;;;;;;;;;5014832;28;20026;-52
2021/03/07 03:45:36;;;;;;;10.60;6.22;;;;;;;;;;5014749;28;20037;-49
2021/03/07 03:48:05;;;;;;;10.55;6.10;;;;;;;;;;5014502;28;20037;-49
2021/03/07 03:50:32;;;;;;;12.77;6.10;;;;;;;;;;5014526;28;20017;-50
2021/03/07 03:53:01;;;;;;;11.27;6.50;;;;;;;;;;5014537;28;20053;-53
2021/03/07 03:55:28;;;;;;;12.55;6.35;;;;;;;;;;5014415;28;20048;-53
2021/03/07 03:57:57;;;;;;;12.27;6.78;;;;;;;;;;5014393;28;20032;-50
2021/03/07 04:00:26;;;;;;;12.45;6.72;;;;;;;;;;5014321;28;20066;-52
2021/03/07 04:02:55;;;;;;;12.85;6.68;;;;;;;;;;5014374;28;20350;-47
2021/03/07 04:05:22;;;;;;;12.88;6.63;;;;;;;;;;5014249;28;20037;-50
2021/03/07 04:07:49;;;;;;;14.40;6.65;;;;;;;;;;5014080;28;20034;-47
2021/03/07 04:10:17;;;;;;;11.75;6.85;;;;;;;;;;5014021;28;20501;-46
2021/03/07 04:12:45;;;;;;;11.82;7.10;;;;;;;;;;5013956;28;20379;-50
2021/03/07 04:15:11;;;;;;;14.52;7.68;;;;;;;;;;5014194;28;20030;-50
2021/03/07 04:17:38;;;;;;;17.42;7.72;;;;;;;;;;5014205;28;20053;-49
2021/03/07 04:20:07;;;;;;;15.43;7.55;;;;;;;;;;5013941;28;20377;-48
2021/03/07 04:22:34;;;;;;;14.07;7.55;;;;;;;;;;5013932;28;20045;-49
2021/03/07 04:25:00;;;;;;;16.27;8.02;;;;;;;;;;5013958;28;20018;-47
2021/03/07 04:27:28;;;;;;;22.88;9.27;;;;;;;;;;5013577;28;20037;-47
2021/03/07 04:29:54;;;;;;;26.98;10.30;;;;;;;;;;5013772;28;20036;-50
2021/03/07 04:32:20;;;;;;;27.17;10.18;;;;;;;;;;5013744;28;20036;-48
2021/03/07 04:34:47;;;;;;;29.35;9.20;;;;;;;;;;5013949;28;20030;-53
2021/03/07 04:37:13;;;;;;;31.02;10.82;;;;;;;;;;5013720;28;20028;-50
2021/03/07 04:39:39;;;;;;;40.28;11.90;;;;;;;;;;5013826;28;21181;-46
2021/03/07 04:42:06;;;;;;;41.50;12.35;;;;;;;;;;5013340;28;20056;-48
2021/03/07 04:44:32;;;;;;;32.72;11.57;;;;;;;;;;5013766;28;20026;-47
2021/03/07 04:46:59;;;;;;;36.33;13.27;;;;;;;;;;5013440;28;20070;-49
2021/03/07 04:49:25;;;;;;;29.63;10.80;;;;;;;;;;5013418;28;20026;-53
2021/03/07 04:51:51;;;;;;;28.55;10.82;;;;;;;;;;5012745;28;20080;-51
2021/03/07 04:54:17;;;;;;;27.55;10.38;;;;;;;;;;5013111;28;20022;-51
2021/03/07 04:56:44;;;;;;;26.60;10.32;;;;;;;;;;5013362;28;20030;-49
2021/03/07 04:59:10;;;;;;;23.08;10.85;;;;;;;;;;5013415;28;20068;-48
2021/03/07 05:01:36;;;;;;;21.15;9.80;;;;;;;;;;5013249;28;20014;-49
2021/03/07 05:04:06;;;;;;;22.63;10.57;;;;;;;;;;5013210;28;20485;-49
2021/03/07 05:06:40;;;;;;;20.95;10.60;;;;;;;;;;5013190;28;20030;-47
2021/03/07 05:09:07;;;;;;;19.20;10.00;;;;;;;;;;5013091;28;20046;-49
2021/03/07 05:11:34;;;;;;;16.63;9.13;;;;;;;;;;5012948;28;20033;-51
2021/03/07 05:14:00;;;;;;;13.43;7.82;;;;;;;;;;5013053;28;20112;-52
2021/03/07 05:16:26;;;;;;;14.55;7.90;;;;;;;;;;5012969;28;20109;-49
2021/03/07 05:18:52;;;;;;;15.32;7.53;;;;;;;;;;5012911;28;20022;-49
2021/03/07 05:21:18;;;;;;;15.23;8.25;;;;;;;;;;5012846;28;20485;-49
2021/03/07 05:23:45;;;;;;;26.75;11.25;;;;;;;;;;5012913;28;20030;-50
2021/03/07 05:26:11;;;;;;;35.08;12.15;;;;;;;;;;5012843;28;20076;-47
2021/03/07 05:28:37;;;;;;;29.90;10.73;;;;;;;;;;5012522;28;20022;-55
2021/03/07 05:31:04;;;;;;;25.55;10.57;;;;;;;;;;5012712;28;20065;-48
2021/03/07 05:33:30;;;;;;;18.00;9.57;;;;;;;;;;5012647;28;20026;-50
2021/03/07 05:35:56;;;;;;;23.00;9.77;;;;;;;;;;5012641;28;20034;-52
2021/03/07 05:38:22;;;;;;;19.80;10.13;;;;;;;;;;5012560;28;20038;-47
2021/03/07 05:40:48;;;;;;;15.35;8.02;;;;;;;;;;5012460;28;20026;-46
2021/03/07 05:43:15;;;;;;;15.85;8.90;;;;;;;;;;4994944;28;20022;-51
2021/03/07 05:45:41;;;;;;;17.92;8.52;;;;;;;;;;5012491;28;20029;-51
2021/03/07 05:48:07;;;;;;;16.95;8.18;;;;;;;;;;5012281;28;20033;-50
2021/03/07 05:50:33;;;;;;;16.33;7.80;;;;;;;;;;5012387;28;20072;-49
2021/03/07 05:53:00;;;;;;;18.73;9.65;;;;;;;;;;5012600;28;20028;-55
2021/03/07 05:55:27;;;;;;;23.00;10.00;;;;;;;;;;5012294;28;20029;-53
2021/03/07 05:57:56;;;;;;;24.27;11.73;;;;;;;;;;5011948;28;20018;-53
2021/03/07 06:00:23;;;;;;;24.90;10.82;;;;;;;;;;5012947;28;20022;-54
2021/03/07 06:02:49;;;;;;;25.25;10.57;;;;;;;;;;5012852;28;20025;-51
2021/03/07 06:05:16;;;;;;;16.50;8.15;;;;;;;;;;5012817;28;20033;-49
2021/03/07 06:07:43;;;;;;;20.42;10.20;;;;;;;;;;5012805;28;20038;-50
2021/03/07 06:10:12;;;;;;;23.67;9.82;;;;;;;;;;5012649;28;20046;-50
2021/03/07 06:12:39;;;;;;;17.40;8.68;;;;;;;;;;5012667;28;20040;-47
2021/03/07 06:15:06;;;;;;;16.88;8.00;;;;;;;;;;5012768;28;20505;-49
2021/03/07 06:17:43;;;;;;;17.63;8.93;;;;;;;;;;5012318;28;20041;-51
2021/03/07 06:20:10;;;;;;;29.15;12.23;;;;;;;;;;5013001;28;20036;-48
2021/03/07 06:22:36;;;;;;;18.60;9.32;;;;;;;;;;5012690;28;20057;-50
2021/03/07 06:25:12;;;;;;;17.90;8.40;;;;;;;;;;5012825;28;20022;-46
2021/03/07 06:27:39;;;;;;;13.02;7.38;;;;;;;;;;5012442;28;20038;-49
2021/03/07 06:30:08;;;;;;;13.95;6.75;;;;;;;;;;5012787;28;20401;-50
2021/03/07 06:32:35;;;;;;;14.55;7.55;;;;;;;;;;5012724;28;20397;-49
2021/03/07 06:35:01;;;;;;;13.65;7.55;;;;;;;;;;5012443;28;20021;-46
2021/03/07 06:37:28;;;;;;;11.18;5.75;;;;;;;;;;5012571;28;20116;-48
2021/03/07 06:39:54;;;;;;;11.10;5.82;;;;;;;;;;5012619;28;20026;-48
2021/03/07 06:42:21;;;;;;;14.20;7.32;;;;;;;;;;5012481;28;20032;-47
2021/03/07 06:44:57;;;;;;;11.93;5.78;;;;;;;;;;5012605;28;20030;-47
2021/03/07 06:47:24;;;;;;;14.73;6.68;;;;;;;;;;5012421;28;20042;-50
2021/03/07 06:50:06;;;;;;;16.15;7.65;;;;;;;;;;5012755;28;20022;-47
2021/03/07 06:52:32;;;;;;;13.45;6.35;;;;;;;;;;5012392;28;20346;-47
2021/03/07 06:55:06;;;;;;;16.80;8.10;;;;;;;;;;5012322;28;20022;-47
2021/03/07 06:57:32;;;;;;;14.98;7.68;;;;;;;;;;5012112;28;20508;-50
2021/03/07 06:59:58;;;;;;;17.67;7.47;;;;;;;;;;5012364;28;20052;-50
2021/03/07 07:02:24;;;;;;;15.70;7.25;;;;;;;;;;5012248;28;20385;-46
2021/03/07 07:04:50;;;;;;;14.45;7.78;;;;;;;;;;5012550;28;20033;-51
2021/03/07 07:07:18;;;;;;;18.27;8.30;;;;;;;;;;5012144;28;20489;-49
2021/03/07 07:09:48;;;;;;;17.42;7.40;;;;;;;;;;5012214;28;20487;-49
2021/03/07 07:12:27;;;;;;;13.55;7.05;;;;;;;;;;5012147;28;20029;-48
2021/03/07 07:15:12;;;;;;;10.45;5.30;;;;;;;;;;5012253;28;20022;-48
2021/03/07 07:17:38;;;;;;;15.10;6.43;;;;;;;;;;5016260;28;20025;-47
2021/03/07 07:20:08;;;;;;;20.65;8.75;;;;;;;;;;5015895;28;20080;-46
2021/03/07 07:22:35;;;;;;;17.63;8.40;;;;;;;;;;5016072;28;20358;-48
2021/03/07 07:25:01;;;;;;;11.80;7.10;;;;;;;;;;5015881;28;20113;-47
2021/03/07 07:27:28;;;;;;;12.65;5.63;;;;;;;;;;5015734;28;20037;-48
2021/03/07 07:29:54;;;;;;;11.43;5.82;;;;;;;;;;5015766;28;20028;-52
2021/03/07 07:32:23;;;;;;;10.27;5.00;;;;;;;;;;5015874;28;20072;-48
2021/03/07 07:35:03;;;;;;;24.13;9.73;;;;;;;;;;5015902;28;20394;-48
2021/03/07 07:37:33;;;;;;;19.73;8.25;;;;;;;;;;5015606;28;20034;-46
2021/03/07 07:39:59;;;;;;;14.80;6.30;;;;;;;;;;5015810;28;20038;-47
2021/03/07 07:42:27;;;;;;;12.65;6.80;;;;;;;;;;4998136;28;20381;-46
2021/03/07 07:44:53;;;;;;;14.68;7.22;;;;;;;;;;5015571;28;20082;-45
2021/03/07 07:47:20;;;;;;;15.50;8.40;;;;;;;;;;5015610;28;20030;-48
2021/03/07 07:49:50;;;;;;;18.00;8.35;;;;;;;;;;5015429;28;20037;-47
2021/03/07 07:52:22;;;;;;;14.35;6.60;;;;;;;;;;5014947;28;20497;-45
2021/03/07 07:54:50;;;;;;;26.40;12.18;;;;;;;;;;5014933;28;20030;-46
2021/03/07 07:57:38;;;;;;;15.75;8.02;;;;;;;;;;5015250;28;20033;-48
2021/03/07 08:00:09;;;;;;;15.43;6.25;;;;;;;;;;5015222;28;20029;-46
2021/03/07 08:02:47;;;;;;;17.73;7.65;;;;;;;;;;5015116;28;20597;-45
2021/03/07 08:05:26;;;;;;;13.65;7.22;;;;;;;;;;5015059;28;20053;-45
2021/03/07 08:08:05;;;;;;;11.43;5.65;;;;;;;;;;5015399;28;20053;-44
2021/03/07 08:10:38;;;;;;;11.88;5.88;;;;;;;;;;5014824;28;20046;-45
2021/03/07 08:13:04;;;;;;;12.00;5.93;;;;;;;;;;5015275;28;20028;-47
2021/03/07 08:15:31;;;;;;;11.50;5.15;;;;;;;;;;5014635;28;20026;-46
2021/03/07 08:18:00;;;;;;;10.60;5.07;;;;;;;;;;5014960;28;20022;-46
2021/03/07 08:20:39;;;;;;;10.70;5.65;;;;;;;;;;5014874;28;20109;-46
2021/03/07 08:23:06;;;;;;;9.68;4.60;;;;;;;;;;5014721;28;20454;-46
2021/03/07 08:25:47;;;;;;;12.05;6.15;;;;;;;;;;5014778;28;20030;-45
2021/03/07 08:28:25;;;;;;;11.57;6.10;;;;;;;;;;5014805;28;20168;-48
2021/03/07 08:30:52;;;;;;;11.85;6.15;;;;;;;;;;5014722;28;20030;-46
2021/03/07 08:33:31;;;;;;;10.77;6.38;;;;;;;;;;5014607;28;20462;-46
2021/03/07 08:36:16;;;;;;;11.68;6.38;;;;;;;;;;5014992;28;20022;-45
2021/03/07 08:38:52;;;;;;;13.93;6.53;;;;;;;;;;5014839;28;20040;-49
2021/03/07 08:41:18;;;;;;;15.30;6.75;;;;;;;;;;5014645;28;20017;-50
2021/03/07 08:43:55;;;;;;;14.02;6.45;;;;;;;;;;5014292;28;20088;-50
2021/03/07 08:46:29;;;;;;;14.00;6.85;;;;;;;;;;5014561;28;21912;-46
2021/03/07 08:48:56;;;;;;;12.25;6.10;;;;;;;;;;5014467;28;20025;-48
2021/03/07 08:51:32;;;;;;;13.90;6.95;;;;;;;;;;5014343;28;20025;-47
2021/03/07 08:54:06;;;;;;;11.00;5.72;;;;;;;;;;5014631;28;20426;-46
2021/03/07 08:56:33;;;;;;;12.18;5.97;;;;;;;;;;5014376;28;20018;-46
2021/03/07 08:58:59;;;;;;;13.07;7.85;;;;;;;;;;5014082;28;20060;-47
2021/03/07 09:01:26;;;;;;;15.50;7.55;;;;;;;;;;5014223;28;20101;-46
2021/03/07 09:04:02;;;;;;;13.45;6.43;;;;;;;;;;5014048;28;20493;-46
2021/03/07 09:06:29;;;;;;;19.25;7.55;;;;;;;;;;5014086;28;20041;-46
2021/03/07 09:09:07;;;;;;;12.95;5.95;;;;;;;;;;5013914;28;20536;-47
2021/03/07 09:11:34;;;;;;;13.45;6.75;;;;;;;;;;5014067;28;20062;-47
2021/03/07 09:14:01;;;;;;;11.63;6.07;;;;;;;;;;5013710;28;20034;-48
2021/03/07 09:16:37;;;;;;;13.43;6.30;;;;;;;;;;5013939;28;20124;-45
2021/03/07 09:19:18;;;;;;;12.38;6.63;;;;;;;;;;5013797;28;20034;-45
2021/03/07 09:21:44;;;;;;;14.43;6.57;;;;;;;;;;5013603;28;20030;-46
2021/03/07 09:24:10;;;;;;;15.05;7.35;;;;;;;;;;5013639;28;20022;-46
2021/03/07 09:26:37;;;;;;;13.55;7.20;;;;;;;;;;5013546;28;20026;-45
2021/03/07 09:29:03;;;;;;;11.70;6.20;;;;;;;;;;5013485;28;20513;-45
2021/03/07 09:31:32;;;;;;;13.05;6.55;;;;;;;;;;5013889;28;20401;-45
2021/03/07 09:33:59;;;;;;;13.70;7.38;;;;;;;;;;5013528;28;20033;-45
2021/03/07 09:36:26;;;;;;;14.50;7.55;;;;;;;;;;5013400;28;20026;-46
2021/03/07 09:38:56;;;;;;;13.02;6.82;;;;;;;;;;5012931;28;20082;-46
2021/03/07 09:41:32;;;;;;;12.88;7.15;;;;;;;;;;5013367;28;20351;-46
2021/03/07 09:44:00;;;;;;;17.80;7.70;;;;;;;;;;5013658;28;20375;-45
2021/03/07 09:46:27;;;;;;;12.82;7.13;;;;;;;;;;5013095;28;20022;-45
2021/03/07 09:48:58;;;;;;;15.13;8.75;;;;;;;;;;5013567;28;20026;-45
2021/03/07 09:51:27;;;;;;;11.23;6.30;;;;;;;;;;5013267;28;20066;-45
2021/03/07 09:53:53;;;;;;;9.82;5.90;;;;;;;;;;5013372;28;20072;-46
2021/03/07 09:56:38;;;;;;;12.40;6.38;;;;;;;;;;5013111;28;20034;-45
2021/03/07 09:59:10;;;;;;;13.45;7.57;;;;;;;;;;5013169;28;20021;-45
2021/03/07 10:01:46;;;;;;;14.85;8.13;;;;;;;;;;5012946;28;20037;-45
2021/03/07 10:04:32;;;;;;;12.45;6.28;;;;;;;;;;5013118;28;20419;-45
2021/03/07 10:06:58;;;;;;;11.73;6.05;;;;;;;;;;5012954;28;20038;-45
2021/03/07 10:09:24;;;;;;;14.10;5.90;;;;;;;;;;5012858;28;20049;-45
2021/03/07 10:12:01;;;;;;;11.60;5.72;;;;;;;;;;5012855;28;20037;-45
2021/03/07 10:14:31;;;;;;;12.43;5.90;;;;;;;;;;5012815;28;20034;-45
2021/03/07 10:16:58;;;;;;;10.02;5.93;;;;;;;;;;5012848;28;20056;-47
2021/03/07 10:19:34;;;;;;;12.13;6.72;;;;;;;;;;5013033;28;20358;-45
2021/03/07 10:22:02;;;;;;;13.30;6.78;;;;;;;;;;5013222;28;20398;-45
2021/03/07 10:24:29;;;;;;;13.18;6.47;;;;;;;;;;5012797;28;20105;-45
2021/03/07 10:27:00;;;;;;;13.15;6.95;;;;;;;;;;5012746;28;20481;-45
2021/03/07 10:29:27;;;;;;;12.55;6.47;;;;;;;;;;5012796;28;20152;-46
2021/03/07 10:31:59;;;;;;;11.80;6.40;;;;;;;;;;5012648;28;20029;-45
2021/03/07 10:34:32;;;;;;;11.50;5.57;;;;;;;;;;5012782;28;20040;-45
2021/03/07 10:36:58;;;;;;;10.48;6.38;;;;;;;;;;5012653;28;20157;-47
2021/03/07 10:39:24;;;;;;;10.93;5.53;;;;;;;;;;5012572;28;20026;-46
2021/03/07 10:41:50;;;;;;;10.98;5.15;;;;;;;;;;5012568;28;20025;-45
2021/03/07 10:44:24;;;;;;;10.38;5.55;;;;;;;;;;5012600;28;20034;-45
2021/03/07 10:46:50;;;;;;;12.50;6.45;;;;;;;;;;5012348;28;20073;-45
2021/03/07 10:49:18;;;;;;;11.07;5.65;;;;;;;;;;5012520;28;20033;-46
2021/03/07 10:51:44;;;;;;;9.35;5.80;;;;;;;;;;5015191;28;20033;-46
2021/03/07 10:54:10;;;;;;;10.10;5.30;;;;;;;;;;5016610;28;20026;-45
2021/03/07 10:56:40;;;;;;;10.35;5.15;;;;;;;;;;5016423;28;20034;-48
2021/03/07 10:59:07;;;;;;;10.27;5.13;;;;;;;;;;5016521;28;20033;-46
2021/03/07 11:01:34;;;;;;;10.38;5.43;;;;;;;;;;5016395;28;20427;-46
2021/03/07 11:04:00;;;;;;;10.48;5.45;;;;;;;;;;5016456;28;20018;-46
2021/03/07 11:06:26;;;;;;;10.30;4.97;;;;;;;;;;5016231;28;20022;-45
2021/03/07 11:08:52;;;;;;;9.73;5.20;;;;;;;;;;5016331;28;20036;-45
2021/03/07 11:11:19;;;;;;;7.63;4.70;;;;;;;;;;5015955;28;20494;-45
2021/03/07 11:13:45;;;;;;;8.23;4.55;;;;;;;;;;5016193;28;20084;-47
2021/03/07 11:16:12;;;;;;;9.95;5.68;;;;;;;;;;5016034;28;20061;-45
2021/03/07 11:18:38;;;;;;;8.38;4.63;;;;;;;;;;5016055;28;20022;-49
2021/03/07 11:21:05;;;;;;;10.45;5.38;;;;;;;;;;5016199;28;20400;-46
2021/03/07 11:23:31;;;;;;;9.18;5.20;;;;;;;;;;5015999;28;20025;-47
2021/03/07 11:25:57;;;;;;;11.25;6.90;;;;;;;;;;5015968;28;20470;-46
2021/03/07 11:28:23;;;;;;;12.68;5.50;;;;;;;;;;5015926;28;20038;-46
2021/03/07 11:30:49;;;;;;;9.45;5.15;;;;;;;;;;4998176;28;20361;-46
2021/03/07 11:33:16;;;;;;;8.73;5.40;;;;;;;;;;5016139;28;20144;-45
2021/03/07 11:35:42;;;;;;;9.95;5.40;;;;;;;;;;5015964;28;20022;-45
2021/03/07 11:38:08;;;;;;;9.45;5.20;;;;;;;;;;5016122;28;20022;-44
2021/03/07 11:40:34;;;;;;;7.82;4.55;;;;;;;;;;5015900;28;20033;-45
2021/03/07 11:43:00;;;;;;;8.75;5.30;;;;;;;;;;5015677;28;20037;-45
2021/03/07 11:45:26;;;;;;;10.68;5.30;;;;;;;;;;5015862;28;20029;-46
2021/03/07 11:47:52;;;;;;;10.65;5.28;;;;;;;;;;5015582;28;20091;-45
2021/03/07 11:50:19;;;;;;;11.15;5.13;;;;;;;;;;5015568;28;20084;-45
2021/03/07 11:52:45;;;;;;;8.55;5.78;;;;;;;;;;5015391;28;20076;-47
2021/03/07 11:55:11;;;;;;;8.55;5.55;;;;;;;;;;5015637;28;20068;-45
2021/03/07 11:57:38;;;;;;;11.68;5.90;;;;;;;;;;5015528;28;20038;-46
2021/03/07 12:00:05;;;;;;;9.57;5.07;;;;;;;;;;5015291;28;20127;-46
2021/03/07 12:02:31;;;;;;;8.73;5.32;;;;;;;;;;5014580;28;20029;-46
2021/03/07 12:04:57;;;;;;;9.27;5.15;;;;;;;;;;5015286;28;20045;-44
2021/03/07 12:07:23;;;;;;;9.70;5.50;;;;;;;;;;5015184;28;20471;-44
2021/03/07 12:09:49;;;;;;;10.80;6.20;;;;;;;;;;5014893;28;20057;-45
2021/03/07 12:12:15;;;;;;;9.10;5.35;;;;;;;;;;5015296;28;20075;-45
2021/03/07 12:14:42;;;;;;;10.70;5.57;;;;;;;;;;5015018;28;20034;-45
2021/03/07 12:17:08;;;;;;;26.30;6.63;;;;;;;;;;5014949;28;20477;-44
2021/03/07 12:19:34;;;;;;;13.48;5.40;;;;;;;;;;5014936;28;20034;-45
2021/03/07 12:22:00;;;;;;;10.63;5.20;;;;;;;;;;5014911;28;20029;-45
2021/03/07 12:24:29;;;;;;;10.23;5.28;;;;;;;;;;5014861;28;20028;-45
2021/03/07 12:26:55;;;;;;;8.65;4.97;;;;;;;;;;5014957;28;20042;-46
2021/03/07 12:29:21;;;;;;;9.75;5.75;;;;;;;;;;5014820;28;20353;-45
2021/03/07 12:31:47;;;;;;;8.93;5.00;;;;;;;;;;5014587;28;20022;-45
2021/03/07 12:34:13;;;;;;;9.45;4.95;;;;;;;;;;5014702;28;20465;-47
2021/03/07 12:36:39;;;;;;;8.57;5.20;;;;;;;;;;5014762;28;20022;-45
2021/03/07 12:39:05;;;;;;;10.25;5.53;;;;;;;;;;5014645;28;20022;-45
2021/03/07 12:41:31;;;;;;;9.93;5.68;;;;;;;;;;5014579;28;20030;-44
2021/03/07 12:43:57;;;;;;;8.95;4.97;;;;;;;;;;5014432;28;20476;-45
2021/03/07 12:46:23;;;;;;;7.78;5.07;;;;;;;;;;5014297;28;20026;-47
2021/03/07 12:48:49;;;;;;;9.02;5.22;;;;;;;;;;5014201;28;20026;-44
2021/03/07 12:51:15;;;;;;;10.23;5.13;;;;;;;;;;5014051;28;20113;-45
2021/03/07 12:53:42;;;;;;;9.75;6.13;;;;;;;;;;5014168;28;20026;-45
2021/03/07 12:56:08;;;;;;;11.88;5.80;;;;;;;;;;5014309;28;20033;-44
2021/03/07 12:58:34;;;;;;;8.35;4.65;;;;;;;;;;5014250;28;20108;-45
2021/03/07 13:01:00;;;;;;;9.52;4.90;;;;;;;;;;5014278;28;20029;-44
2021/03/07 13:03:26;;;;;;;9.98;5.28;;;;;;;;;;5014185;28;20025;-44
2021/03/07 13:05:52;;;;;;;9.75;5.38;;;;;;;;;;5014163;28;20014;-44
2021/03/07 13:08:18;;;;;;;10.18;5.13;;;;;;;;;;5013832;28;20474;-45
2021/03/07 13:10:44;;;;;;;8.35;4.50;;;;;;;;;;5014031;28;20053;-45
2021/03/07 13:13:10;;;;;;;8.75;4.85;;;;;;;;;;5013293;28;20025;-44
2021/03/07 13:15:36;;;;;;;8.35;4.60;;;;;;;;;;5014009;28;20026;-44
2021/03/07 13:18:03;;;;;;;7.15;4.15;;;;;;;;;;5013823;28;20026;-44
2021/03/07 13:20:29;;;;;;;8.57;4.78;;;;;;;;;;5013818;28;20480;-46
2021/03/07 13:22:55;;;;;;;8.48;5.20;;;;;;;;;;5013836;28;20042;-44
2021/03/07 13:25:21;;;;;;;9.45;5.47;;;;;;;;;;4996335;28;20491;-45
2021/03/07 13:27:47;;;;;;;9.30;5.35;;;;;;;;;;5013682;28;20038;-46
2021/03/07 13:30:13;;;;;;;9.18;5.03;;;;;;;;;;5013888;28;20454;-46
2021/03/07 13:32:39;;;;;;;9.90;5.20;;;;;;;;;;5013525;28;20543;-44
2021/03/07 13:35:06;;;;;;;8.43;5.00;;;;;;;;;;5013655;28;20025;-45
2021/03/07 13:37:32;;;;;;;11.85;5.72;;;;;;;;;;5013515;28;20160;-46
2021/03/07 13:39:58;;;;;;;8.40;4.65;;;;;;;;;;5013581;28;20022;-44
2021/03/07 13:42:24;;;;;;;9.25;5.25;;;;;;;;;;5013475;28;20065;-45
2021/03/07 13:44:50;;;;;;;8.82;4.97;;;;;;;;;;5013571;28;20030;-45
2021/03/07 13:47:16;;;;;;;9.25;4.90;;;;;;;;;;5013239;28;20033;-44
2021/03/07 13:49:42;;;;;;;8.25;4.80;;;;;;;;;;5013838;28;20343;-44
2021/03/07 13:52:08;;;;;;;8.90;5.30;;;;;;;;;;5013267;28;20037;-44
2021/03/07 13:54:34;;;;;;;12.73;4.60;;;;;;;;;;5013339;28;20034;-44
2021/03/07 13:57:00;;;;;;;10.18;4.63;;;;;;;;;;5013298;28;20026;-45
2021/03/07 13:59:27;;;;;;;9.50;5.03;;;;;;;;;;5013186;28;20057;-46
2021/03/07 14:01:53;;;;;;;8.48;5.00;;;;;;;;;;5013128;28;20026;-44
2021/03/07 14:04:19;;;;;;;8.48;5.00;;;;;;;;;;5013130;28;20469;-46
2021/03/07 14:06:45;;;;;;;13.27;5.50;;;;;;;;;;5013174;28;20034;-44
2021/03/07 14:09:11;;;;;;;8.80;5.25;;;;;;;;;;5012883;28;20042;-44
2021/03/07 14:11:38;;;;;;;11.50;4.90;;;;;;;;;;5013026;28;20033;-43
2021/03/07 14:14:04;;;;;;;9.98;4.70;;;;;;;;;;5013119;28;20096;-45
2021/03/07 14:16:30;;;;;;;8.77;4.95;;;;;;;;;;5012960;28;20512;-46
2021/03/07 14:18:56;;;;;;;8.43;4.68;;;;;;;;;;5012812;28;20022;-44
2021/03/07 14:21:22;;;;;;;7.80;4.18;;;;;;;;;;5012886;28;20049;-43
2021/03/07 14:23:48;;;;;;;12.55;5.25;;;;;;;;;;5013095;28;20515;-45
2021/03/07 14:26:14;;;;;;;11.07;4.90;;;;;;;;;;5012868;28;20022;-41
2021/03/07 14:28:40;;;;;;;8.02;4.45;;;;;;;;;;5012813;28;20037;-42
2021/03/07 14:31:06;;;;;;;7.90;4.28;;;;;;;;;;5012989;28;20365;-42
2021/03/07 14:33:33;;;;;;;9.90;4.90;;;;;;;;;;5012650;28;20415;-43
2021/03/07 14:35:59;;;;;;;6.80;3.70;;;;;;;;;;5012638;28;20080;-42